sensor_id;sensor_type;location;lat;lon;timestamp;temperature;humidity
63325;SHT31;49451;52.390;13.028;2022-11-28T04:10:25;3.19;91.26
63325;SHT31;49451;52.390;13.028;2022-11-28T04:13:35;3.23;91.64
63325;SHT31;49451;52.390;13.028;2022-11-28T04:16:32;3.30;90.98
63325;SHT31;49451;52.390;13.028;2022-11-28T04:19:37;3.31;90.97
63325;SHT31;49451;52.390;13.028;2022-11-28T04:22:37;3.31;90.93
63325;SHT31;49451;52.390;13.028;2022-11-28T04:25:55;3.22;91.50
63325;SHT31;49451;52.390;13.028;2022-11-28T04:34:50;3.30;91.01
63325;SHT31;49451;52.390;13.028;2022-11-28T04:37:29;3.20;91.53
63325;SHT31;49451;52.390;13.028;2022-11-28T04:40:06;3.34;91.27
63325;SHT31;49451;52.390;13.028;2022-11-28T04:42:54;3.34;91.29
63325;SHT31;49451;52.390;13.028;2022-11-28T04:45:49;3.37;91.22
63325;SHT31;49451;52.390;13.028;2022-11-28T04:48:31;3.26;91.38
63325;SHT31;49451;52.390;13.028;2022-11-28T04:51:26;3.33;91.22
63325;SHT31;49451;52.390;13.028;2022-11-28T04:54:28;3.38;91.28
63325;SHT31;49451;52.390;13.028;2022-11-28T04:57:44;3.40;90.80
63325;SHT31;49451;52.390;13.028;2022-11-28T05:00:36;3.36;91.04
63325;SHT31;49451;52.390;13.028;2022-11-28T05:03:03;3.27;90.95
63325;SHT31;49451;52.390;13.028;2022-11-28T05:05:28;3.41;90.00
63325;SHT31;49451;52.390;13.028;2022-11-28T05:07:56;3.41;90.19
63325;SHT31;49451;52.390;13.028;2022-11-28T05:10:21;3.47;90.04
63325;SHT31;49451;52.390;13.028;2022-11-28T05:12:47;3.54;90.43
63325;SHT31;49451;52.390;13.028;2022-11-28T05:15:12;3.51;90.34
63325;SHT31;49451;52.390;13.028;2022-11-28T05:17:43;3.45;90.43
63325;SHT31;49451;52.390;13.028;2022-11-28T05:20:09;3.45;90.28
63325;SHT31;49451;52.390;13.028;2022-11-28T05:22:35;3.50;90.12
63325;SHT31;49451;52.390;13.028;2022-11-28T05:25:00;3.51;90.31
63325;SHT31;49451;52.390;13.028;2022-11-28T05:27:26;3.51;90.35
63325;SHT31;49451;52.390;13.028;2022-11-28T05:29:54;3.65;89.87
63325;SHT31;49451;52.390;13.028;2022-11-28T05:32:19;3.53;90.33
63325;SHT31;49451;52.390;13.028;2022-11-28T05:34:45;3.57;89.90
63325;SHT31;49451;52.390;13.028;2022-11-28T05:37:10;3.53;90.19
63325;SHT31;49451;52.390;13.028;2022-11-28T05:39:36;3.62;89.93
63325;SHT31;49451;52.390;13.028;2022-11-28T05:42:01;3.72;89.53
63325;SHT31;49451;52.390;13.028;2022-11-28T05:44:26;3.57;90.13
63325;SHT31;49451;52.390;13.028;2022-11-28T05:46:52;3.51;90.53
63325;SHT31;49451;52.390;13.028;2022-11-28T05:49:17;3.43;90.46
63325;SHT31;49451;52.390;13.028;2022-11-28T05:51:46;3.47;90.67
63325;SHT31;49451;52.390;13.028;2022-11-28T05:54:11;3.57;90.25
63325;SHT31;49451;52.390;13.028;2022-11-28T05:56:36;3.58;90.24
63325;SHT31;49451;52.390;13.028;2022-11-28T05:59:02;3.51;90.40
63325;SHT31;49451;52.390;13.028;2022-11-28T06:01:28;3.50;90.56
63325;SHT31;49451;52.390;13.028;2022-11-28T06:03:58;3.44;90.86
63325;SHT31;49451;52.390;13.028;2022-11-28T06:06:27;3.58;90.32
63325;SHT31;49451;52.390;13.028;2022-11-28T06:08:53;3.64;89.68
63325;SHT31;49451;52.390;13.028;2022-11-28T06:11:20;3.68;89.75
63325;SHT31;49451;52.390;13.028;2022-11-28T06:13:46;3.77;89.34
63325;SHT31;49451;52.390;13.028;2022-11-28T06:16:17;3.53;89.75
63325;SHT31;49451;52.390;13.028;2022-11-28T06:18:43;3.62;89.55
63325;SHT31;49451;52.390;13.028;2022-11-28T06:21:09;3.53;90.07
63325;SHT31;49451;52.390;13.028;2022-11-28T06:23:35;3.48;90.25
63325;SHT31;49451;52.390;13.028;2022-11-28T06:26:06;3.53;89.93
63325;SHT31;49451;52.390;13.028;2022-11-28T06:28:32;3.36;90.57
63325;SHT31;49451;52.390;13.028;2022-11-28T06:30:58;3.54;89.98
63325;SHT31;49451;52.390;13.028;2022-11-28T06:33:23;3.44;90.27
63325;SHT31;49451;52.390;13.028;2022-11-28T06:35:49;3.40;90.58
63325;SHT31;49451;52.390;13.028;2022-11-28T06:38:14;3.47;89.78
63325;SHT31;49451;52.390;13.028;2022-11-28T06:40:39;3.58;90.21
63325;SHT31;49451;52.390;13.028;2022-11-28T06:43:05;3.64;90.15
63325;SHT31;49451;52.390;13.028;2022-11-28T06:45:32;3.47;90.07
63325;SHT31;49451;52.390;13.028;2022-11-28T06:47:59;3.47;90.43
63325;SHT31;49451;52.390;13.028;2022-11-28T06:50:24;3.65;89.96
63325;SHT31;49451;52.390;13.028;2022-11-28T06:52:49;3.72;89.46
63325;SHT31;49451;52.390;13.028;2022-11-28T06:55:15;3.54;89.88
63325;SHT31;49451;52.390;13.028;2022-11-28T06:57:42;3.45;90.34
63325;SHT31;49451;52.390;13.028;2022-11-28T07:00:08;3.45;90.64
63325;SHT31;49451;52.390;13.028;2022-11-28T07:02:33;3.38;90.48
63325;SHT31;49451;52.390;13.028;2022-11-28T07:04:59;3.54;90.27
63325;SHT31;49451;52.390;13.028;2022-11-28T07:07:33;3.44;90.28
63325;SHT31;49451;52.390;13.028;2022-11-28T07:09:58;3.50;90.43
63325;SHT31;49451;52.390;13.028;2022-11-28T07:12:23;3.71;89.50
63325;SHT31;49451;52.390;13.028;2022-11-28T07:14:49;3.67;90.09
63325;SHT31;49451;52.390;13.028;2022-11-28T07:17:14;3.64;89.89
63325;SHT31;49451;52.390;13.028;2022-11-28T07:19:40;3.77;89.71
63325;SHT31;49451;52.390;13.028;2022-11-28T07:22:05;3.47;90.59
63325;SHT31;49451;52.390;13.028;2022-11-28T07:24:30;3.53;90.36
63325;SHT31;49451;52.390;13.028;2022-11-28T07:26:57;3.57;90.25
63325;SHT31;49451;52.390;13.028;2022-11-28T07:29:22;3.54;90.19
63325;SHT31;49451;52.390;13.028;2022-11-28T07:31:49;3.60;90.56
63325;SHT31;49451;52.390;13.028;2022-11-28T07:34:14;3.70;90.29
63325;SHT31;49451;52.390;13.028;2022-11-28T07:36:40;3.74;89.84
63325;SHT31;49451;52.390;13.028;2022-11-28T07:39:06;3.79;89.42
63325;SHT31;49451;52.390;13.028;2022-11-28T07:41:35;3.62;90.11
63325;SHT31;49451;52.390;13.028;2022-11-28T07:44:01;3.82;89.45
63325;SHT31;49451;52.390;13.028;2022-11-28T07:46:31;3.74;89.71
63325;SHT31;49451;52.390;13.028;2022-11-28T07:49:36;3.82;89.67
63325;SHT31;49451;52.390;13.028;2022-11-28T07:52:03;3.83;89.24
63325;SHT31;49451;52.390;13.028;2022-11-28T07:54:28;3.85;89.26
63325;SHT31;49451;52.390;13.028;2022-11-28T07:56:54;3.75;89.66
63325;SHT31;49451;52.390;13.028;2022-11-28T07:59:19;3.71;89.82
63325;SHT31;49451;52.390;13.028;2022-11-28T08:01:45;3.74;89.71
63325;SHT31;49451;52.390;13.028;2022-11-28T08:04:10;3.96;88.69
63325;SHT31;49451;52.390;13.028;2022-11-28T08:06:40;3.83;89.35
63325;SHT31;49451;52.390;13.028;2022-11-28T08:09:06;3.83;89.19
63325;SHT31;49451;52.390;13.028;2022-11-28T08:11:33;3.99;88.89
63325;SHT31;49451;52.390;13.028;2022-11-28T08:14:03;3.67;89.75
63325;SHT31;49451;52.390;13.028;2022-11-28T08:16:49;3.83;89.34
63325;SHT31;49451;52.390;13.028;2022-11-28T08:19:15;3.81;89.45
63325;SHT31;49451;52.390;13.028;2022-11-28T08:21:41;3.82;89.24
63325;SHT31;49451;52.390;13.028;2022-11-28T08:24:07;3.96;89.19
63325;SHT31;49451;52.390;13.028;2022-11-28T08:26:33;4.02;88.82
63325;SHT31;49451;52.390;13.028;2022-11-28T08:29:00;3.92;88.85
63325;SHT31;49451;52.390;13.028;2022-11-28T08:31:34;4.07;89.27
63325;SHT31;49451;52.390;13.028;2022-11-28T08:34:02;4.05;88.65
63325;SHT31;49451;52.390;13.028;2022-11-28T08:36:28;4.23;88.38
63325;SHT31;49451;52.390;13.028;2022-11-28T08:38:54;4.23;88.47
63325;SHT31;49451;52.390;13.028;2022-11-28T08:41:21;4.09;89.15
63325;SHT31;49451;52.390;13.028;2022-11-28T08:43:47;4.30;87.98
63325;SHT31;49451;52.390;13.028;2022-11-28T08:46:15;4.14;88.70
63325;SHT31;49451;52.390;13.028;2022-11-28T08:48:42;4.10;88.73
63325;SHT31;49451;52.390;13.028;2022-11-28T08:51:11;4.17;88.01
63325;SHT31;49451;52.390;13.028;2022-11-28T08:53:38;4.12;88.50
63325;SHT31;49451;52.390;13.028;2022-11-28T08:56:04;4.16;88.75
63325;SHT31;49451;52.390;13.028;2022-11-28T08:58:31;4.05;88.60
63325;SHT31;49451;52.390;13.028;2022-11-28T09:00:57;4.19;88.49
63325;SHT31;49451;52.390;13.028;2022-11-28T09:03:23;4.23;88.11
63325;SHT31;49451;52.390;13.028;2022-11-28T09:09:14;4.19;88.92
63325;SHT31;49451;52.390;13.028;2022-11-28T09:11:47;4.43;88.42
63325;SHT31;49451;52.390;13.028;2022-11-28T09:14:14;4.58;87.66
63325;SHT31;49451;52.390;13.028;2022-11-28T09:20:02;4.61;87.33
63325;SHT31;49451;52.390;13.028;2022-11-28T09:22:31;4.58;87.82
63325;SHT31;49451;52.390;13.028;2022-11-28T09:25:03;4.54;87.35
63325;SHT31;49451;52.390;13.028;2022-11-28T09:27:29;4.57;87.73
63325;SHT31;49451;52.390;13.028;2022-11-28T09:29:54;4.50;88.01
63325;SHT31;49451;52.390;13.028;2022-11-28T09:32:20;4.68;86.43
63325;SHT31;49451;52.390;13.028;2022-11-28T09:34:45;4.76;86.66
63325;SHT31;49451;52.390;13.028;2022-11-28T09:37:11;4.89;86.64
63325;SHT31;49451;52.390;13.028;2022-11-28T09:39:36;4.84;86.20
63325;SHT31;49451;52.390;13.028;2022-11-28T09:42:36;4.71;86.58
63325;SHT31;49451;52.390;13.028;2022-11-28T09:45:06;4.57;86.79
63325;SHT31;49451;52.390;13.028;2022-11-28T09:47:36;4.81;86.40
63325;SHT31;49451;52.390;13.028;2022-11-28T09:50:09;5.05;85.59
63325;SHT31;49451;52.390;13.028;2022-11-28T09:52:45;5.23;85.09
63325;SHT31;49451;52.390;13.028;2022-11-28T09:55:39;5.15;85.12
63325;SHT31;49451;52.390;13.028;2022-11-28T09:58:25;5.26;85.07
63325;SHT31;49451;52.390;13.028;2022-11-28T10:00:58;4.96;85.69
63325;SHT31;49451;52.390;13.028;2022-11-28T10:06:02;5.26;85.15
63325;SHT31;49451;52.390;13.028;2022-11-28T10:19:48;5.33;84.60
63325;SHT31;49451;52.390;13.028;2022-11-28T10:22:23;5.39;84.27
63325;SHT31;49451;52.390;13.028;2022-11-28T10:24:56;5.62;83.65
63325;SHT31;49451;52.390;13.028;2022-11-28T10:27:28;5.54;83.87
63325;SHT31;49451;52.390;13.028;2022-11-28T10:32:37;5.62;83.41
63325;SHT31;49451;52.390;13.028;2022-11-28T10:37:37;5.77;82.93
63325;SHT31;49451;52.390;13.028;2022-11-28T10:40:34;6.09;82.72
63325;SHT31;49451;52.390;13.028;2022-11-28T10:43:28;5.99;82.96
63325;SHT31;49451;52.390;13.028;2022-11-28T10:48:50;5.95;82.37
63325;SHT31;49451;52.390;13.028;2022-11-28T10:57:16;5.77;82.42
63325;SHT31;49451;52.390;13.028;2022-11-28T11:00:04;6.15;82.13
63325;SHT31;49451;52.390;13.028;2022-11-28T11:02:40;5.77;82.94
63325;SHT31;49451;52.390;13.028;2022-11-28T11:05:16;5.71;82.56
63325;SHT31;49451;52.390;13.028;2022-11-28T11:07:47;5.82;82.67
63325;SHT31;49451;52.390;13.028;2022-11-28T11:10:19;5.74;82.37
63325;SHT31;49451;52.390;13.028;2022-11-28T11:12:46;5.62;82.29
63325;SHT31;49451;52.390;13.028;2022-11-28T11:15:28;5.89;82.46
63325;SHT31;49451;52.390;13.028;2022-11-28T11:17:54;5.78;82.69
63325;SHT31;49451;52.390;13.028;2022-11-28T11:20:28;5.82;82.77
63325;SHT31;49451;52.390;13.028;2022-11-28T11:23:02;5.61;82.97
63325;SHT31;49451;52.390;13.028;2022-11-28T11:25:30;5.60;83.11
63325;SHT31;49451;52.390;13.028;2022-11-28T11:27:58;5.54;83.32
63325;SHT31;49451;52.390;13.028;2022-11-28T11:30:33;5.67;83.22
63325;SHT31;49451;52.390;13.028;2022-11-28T11:33:01;5.61;82.68
63325;SHT31;49451;52.390;13.028;2022-11-28T11:35:30;5.78;82.62
63325;SHT31;49451;52.390;13.028;2022-11-28T11:40:46;5.62;83.93
63325;SHT31;49451;52.390;13.028;2022-11-28T11:43:31;5.47;84.27
63325;SHT31;49451;52.390;13.028;2022-11-28T11:48:55;5.91;82.51
63325;SHT31;49451;52.390;13.028;2022-11-28T11:53:47;5.71;83.00
63325;SHT31;49451;52.390;13.028;2022-11-28T11:56:13;5.77;83.15
63325;SHT31;49451;52.390;13.028;2022-11-28T11:58:48;5.78;82.61
63325;SHT31;49451;52.390;13.028;2022-11-28T12:01:17;5.78;82.89
63325;SHT31;49451;52.390;13.028;2022-11-28T12:03:54;5.70;82.76
63325;SHT31;49451;52.390;13.028;2022-11-28T12:06:24;5.92;82.72
63325;SHT31;49451;52.390;13.028;2022-11-28T12:08:53;5.68;82.96
63325;SHT31;49451;52.390;13.028;2022-11-28T12:11:29;5.84;83.28
63325;SHT31;49451;52.390;13.028;2022-11-28T12:14:23;5.78;82.58
63325;SHT31;49451;52.390;13.028;2022-11-28T12:22:52;5.94;82.36
63325;SHT31;49451;52.390;13.028;2022-11-28T12:27:54;5.82;82.58
63325;SHT31;49451;52.390;13.028;2022-11-28T12:36:11;5.92;82.53
63325;SHT31;49451;52.390;13.028;2022-11-28T12:38:53;6.13;81.45
63325;SHT31;49451;52.390;13.028;2022-11-28T12:49:59;5.96;82.56
63325;SHT31;49451;52.390;13.028;2022-11-28T12:52:52;5.95;81.91
63325;SHT31;49451;52.390;13.028;2022-11-28T13:00:33;6.02;82.13
63325;SHT31;49451;52.390;13.028;2022-11-28T13:03:09;5.96;82.20
63325;SHT31;49451;52.390;13.028;2022-11-28T13:06:10;6.27;81.88
63325;SHT31;49451;52.390;13.028;2022-11-28T13:11:45;6.05;82.41
63325;SHT31;49451;52.390;13.028;2022-11-28T13:23:06;6.19;82.48
63325;SHT31;49451;52.390;13.028;2022-11-28T13:26:13;6.20;82.26
63325;SHT31;49451;52.390;13.028;2022-11-28T13:31:32;6.25;81.73
63325;SHT31;49451;52.390;13.028;2022-11-28T13:34:02;6.26;81.63
63325;SHT31;49451;52.390;13.028;2022-11-28T13:39:47;5.98;82.72
63325;SHT31;49451;52.390;13.028;2022-11-28T13:51:24;6.06;82.61
63325;SHT31;49451;52.390;13.028;2022-11-28T13:59:30;5.84;83.43
63325;SHT31;49451;52.390;13.028;2022-11-28T14:01:59;6.05;82.20
63325;SHT31;49451;52.390;13.028;2022-11-28T14:04:25;5.99;82.72
63325;SHT31;49451;52.390;13.028;2022-11-28T14:06:58;6.05;82.67
63325;SHT31;49451;52.390;13.028;2022-11-28T14:15:24;6.03;83.09
63325;SHT31;49451;52.390;13.028;2022-11-28T14:18:17;6.22;82.14
63325;SHT31;49451;52.390;13.028;2022-11-28T14:23:44;5.99;82.84
63325;SHT31;49451;52.390;13.028;2022-11-28T14:26:24;5.89;82.98
63325;SHT31;49451;52.390;13.028;2022-11-28T14:28:51;5.82;83.58
63325;SHT31;49451;52.390;13.028;2022-11-28T14:31:30;5.99;83.90
63325;SHT31;49451;52.390;13.028;2022-11-28T14:33:59;6.12;83.31
63325;SHT31;49451;52.390;13.028;2022-11-28T14:39:30;5.81;83.60
63325;SHT31;49451;52.390;13.028;2022-11-28T14:44:57;6.09;82.74
63325;SHT31;49451;52.390;13.028;2022-11-28T14:49:48;6.02;82.77
63325;SHT31;49451;52.390;13.028;2022-11-28T14:52:22;5.84;84.07
63325;SHT31;49451;52.390;13.028;2022-11-28T14:54:50;5.96;83.57
63325;SHT31;49451;52.390;13.028;2022-11-28T14:57:26;5.94;83.98
63325;SHT31;49451;52.390;13.028;2022-11-28T14:59:54;5.87;84.24
63325;SHT31;49451;52.390;13.028;2022-11-28T15:02:36;5.92;83.94
63325;SHT31;49451;52.390;13.028;2022-11-28T15:16:14;5.81;84.41
63325;SHT31;49451;52.390;13.028;2022-11-28T15:18:46;5.79;84.81
63325;SHT31;49451;52.390;13.028;2022-11-28T15:21:14;5.87;84.42
63325;SHT31;49451;52.390;13.028;2022-11-28T15:23:40;5.71;84.81
63325;SHT31;49451;52.390;13.028;2022-11-28T15:26:05;5.62;85.48
63325;SHT31;49451;52.390;13.028;2022-11-28T15:28:31;5.68;85.00
63325;SHT31;49451;52.390;13.028;2022-11-28T15:31:01;5.50;85.77
63325;SHT31;49451;52.390;13.028;2022-11-28T15:33:31;5.47;85.84
63325;SHT31;49451;52.390;13.028;2022-11-28T15:36:32;5.39;86.25
63325;SHT31;49451;52.390;13.028;2022-11-28T15:38:58;5.55;86.14
63325;SHT31;49451;52.390;13.028;2022-11-28T15:41:25;5.67;85.21
63325;SHT31;49451;52.390;13.028;2022-11-28T15:43:51;5.47;85.44
63325;SHT31;49451;52.390;13.028;2022-11-28T15:46:30;5.37;85.71
63325;SHT31;49451;52.390;13.028;2022-11-28T15:48:56;5.40;85.41
63325;SHT31;49451;52.390;13.028;2022-11-28T15:51:30;5.41;85.50
63325;SHT31;49451;52.390;13.028;2022-11-28T15:53:56;5.33;85.89
63325;SHT31;49451;52.390;13.028;2022-11-28T15:56:22;5.46;85.58
63325;SHT31;49451;52.390;13.028;2022-11-28T15:58:48;5.33;86.07
63325;SHT31;49451;52.390;13.028;2022-11-28T16:01:27;5.41;85.49
63325;SHT31;49451;52.390;13.028;2022-11-28T16:04:12;5.37;86.02
63325;SHT31;49451;52.390;13.028;2022-11-28T16:06:40;5.46;85.85
63325;SHT31;49451;52.390;13.028;2022-11-28T16:09:32;5.43;85.31
63325;SHT31;49451;52.390;13.028;2022-11-28T16:12:01;5.52;85.45
63325;SHT31;49451;52.390;13.028;2022-11-28T16:14:29;5.51;85.28
63325;SHT31;49451;52.390;13.028;2022-11-28T16:17:00;5.41;85.43
63325;SHT31;49451;52.390;13.028;2022-11-28T16:19:29;5.36;86.09
63325;SHT31;49451;52.390;13.028;2022-11-28T16:22:01;5.30;86.36
63325;SHT31;49451;52.390;13.028;2022-11-28T16:24:31;5.26;86.41
63325;SHT31;49451;52.390;13.028;2022-11-28T16:27:04;5.40;86.48
63325;SHT31;49451;52.390;13.028;2022-11-28T16:29:32;5.48;85.69
63325;SHT31;49451;52.390;13.028;2022-11-28T16:32:08;5.47;86.25
63325;SHT31;49451;52.390;13.028;2022-11-28T16:34:51;5.50;85.86
63325;SHT31;49451;52.390;13.028;2022-11-28T16:37:23;5.43;86.33
63325;SHT31;49451;52.390;13.028;2022-11-28T16:42:27;5.48;86.33
63325;SHT31;49451;52.390;13.028;2022-11-28T16:44:52;5.37;86.57
63325;SHT31;49451;52.390;13.028;2022-11-28T16:47:23;5.40;86.24
63325;SHT31;49451;52.390;13.028;2022-11-28T17:00:39;5.36;86.99
63325;SHT31;49451;52.390;13.028;2022-11-28T17:05:42;5.16;87.47
63325;SHT31;49451;52.390;13.028;2022-11-28T17:08:08;5.16;87.64
63325;SHT31;49451;52.390;13.028;2022-11-28T17:10:33;5.06;87.87
63325;SHT31;49451;52.390;13.028;2022-11-28T17:12:58;5.15;87.71
63325;SHT31;49451;52.390;13.028;2022-11-28T17:15:24;5.03;87.83
63325;SHT31;49451;52.390;13.028;2022-11-28T17:17:49;4.92;88.34
63325;SHT31;49451;52.390;13.028;2022-11-28T17:20:15;5.05;88.07
63325;SHT31;49451;52.390;13.028;2022-11-28T17:22:44;4.95;88.11
63325;SHT31;49451;52.390;13.028;2022-11-28T17:25:15;5.03;87.80
63325;SHT31;49451;52.390;13.028;2022-11-28T17:27:41;4.92;88.54
63325;SHT31;49451;52.390;13.028;2022-11-28T17:30:11;5.06;87.85
63325;SHT31;49451;52.390;13.028;2022-11-28T17:32:36;5.13;87.35
63325;SHT31;49451;52.390;13.028;2022-11-28T17:35:02;5.06;87.55
63325;SHT31;49451;52.390;13.028;2022-11-28T17:37:28;5.12;87.56
63325;SHT31;49451;52.390;13.028;2022-11-28T17:39:53;5.34;87.08
63325;SHT31;49451;52.390;13.028;2022-11-28T17:42:37;5.27;87.07
63325;SHT31;49451;52.390;13.028;2022-11-28T17:45:03;5.32;86.72
63325;SHT31;49451;52.390;13.028;2022-11-28T17:47:28;5.23;86.63
63325;SHT31;49451;52.390;13.028;2022-11-28T17:49:54;5.20;86.84
63325;SHT31;49451;52.390;13.028;2022-11-28T17:52:19;5.16;87.41
63325;SHT31;49451;52.390;13.028;2022-11-28T17:54:45;5.05;87.00
63325;SHT31;49451;52.390;13.028;2022-11-28T17:57:10;5.22;87.21
63325;SHT31;49451;52.390;13.028;2022-11-28T17:59:36;5.22;87.03
63325;SHT31;49451;52.390;13.028;2022-11-28T18:02:02;5.13;87.41
63325;SHT31;49451;52.390;13.028;2022-11-28T18:04:27;4.97;87.46
63325;SHT31;49451;52.390;13.028;2022-11-28T18:06:53;4.95;87.91
63325;SHT31;49451;52.390;13.028;2022-11-28T18:09:18;5.00;88.05
63325;SHT31;49451;52.390;13.028;2022-11-28T18:11:44;5.03;87.69
63325;SHT31;49451;52.390;13.028;2022-11-28T18:14:11;4.97;87.75
63325;SHT31;49451;52.390;13.028;2022-11-28T18:16:36;4.93;88.41
63325;SHT31;49451;52.390;13.028;2022-11-28T18:19:03;5.08;87.54
63325;SHT31;49451;52.390;13.028;2022-11-28T18:21:29;4.95;87.62
63325;SHT31;49451;52.390;13.028;2022-11-28T18:23:54;4.81;88.17
63325;SHT31;49451;52.390;13.028;2022-11-28T18:26:21;4.75;88.36
63325;SHT31;49451;52.390;13.028;2022-11-28T18:28:48;4.64;89.38
63325;SHT31;49451;52.390;13.028;2022-11-28T18:31:18;4.51;89.84
63325;SHT31;49451;52.390;13.028;2022-11-28T18:33:45;4.65;88.67
63325;SHT31;49451;52.390;13.028;2022-11-28T18:36:17;4.72;88.67
63325;SHT31;49451;52.390;13.028;2022-11-28T18:38:43;4.65;88.49
63325;SHT31;49451;52.390;13.028;2022-11-28T18:41:10;4.74;88.64
63325;SHT31;49451;52.390;13.028;2022-11-28T18:43:35;4.67;88.63
63325;SHT31;49451;52.390;13.028;2022-11-28T18:46:05;4.75;88.41
63325;SHT31;49451;52.390;13.028;2022-11-28T18:48:31;4.81;87.87
63325;SHT31;49451;52.390;13.028;2022-11-28T18:50:57;4.62;88.57
63325;SHT31;49451;52.390;13.028;2022-11-28T18:53:23;4.53;89.21
63325;SHT31;49451;52.390;13.028;2022-11-28T18:55:48;4.58;89.08
63325;SHT31;49451;52.390;13.028;2022-11-28T18:58:13;4.64;88.55
63325;SHT31;49451;52.390;13.028;2022-11-28T19:00:39;4.67;88.69
63325;SHT31;49451;52.390;13.028;2022-11-28T19:03:04;4.75;88.39
63325;SHT31;49451;52.390;13.028;2022-11-28T19:05:30;4.62;88.57
63325;SHT31;49451;52.390;13.028;2022-11-28T19:07:56;4.72;88.44
63325;SHT31;49451;52.390;13.028;2022-11-28T19:10:21;4.74;87.99
63325;SHT31;49451;52.390;13.028;2022-11-28T19:12:47;4.56;88.98
63325;SHT31;49451;52.390;13.028;2022-11-28T19:15:12;4.58;89.10
63325;SHT31;49451;52.390;13.028;2022-11-28T19:17:38;4.61;88.58
63325;SHT31;49451;52.390;13.028;2022-11-28T19:20:04;4.67;88.65
63325;SHT31;49451;52.390;13.028;2022-11-28T19:22:29;4.64;88.52
63325;SHT31;49451;52.390;13.028;2022-11-28T19:24:54;4.48;88.89
63325;SHT31;49451;52.390;13.028;2022-11-28T19:27:20;4.57;89.29
63325;SHT31;49451;52.390;13.028;2022-11-28T19:29:46;4.43;89.84
63325;SHT31;49451;52.390;13.028;2022-11-28T19:32:12;4.58;88.83
63325;SHT31;49451;52.390;13.028;2022-11-28T19:34:37;4.65;88.57
63325;SHT31;49451;52.390;13.028;2022-11-28T19:37:02;4.58;88.73
63325;SHT31;49451;52.390;13.028;2022-11-28T19:39:28;4.58;88.80
63325;SHT31;49451;52.390;13.028;2022-11-28T19:41:53;4.64;88.52
63325;SHT31;49451;52.390;13.028;2022-11-28T19:44:19;4.65;88.38
63325;SHT31;49451;52.390;13.028;2022-11-28T19:46:49;4.60;88.75
63325;SHT31;49451;52.390;13.028;2022-11-28T19:49:16;4.58;88.61
63325;SHT31;49451;52.390;13.028;2022-11-28T19:51:43;4.61;89.05
63325;SHT31;49451;52.390;13.028;2022-11-28T19:54:08;4.60;88.76
63325;SHT31;49451;52.390;13.028;2022-11-28T19:56:33;4.62;88.81
63325;SHT31;49451;52.390;13.028;2022-11-28T19:58:59;4.68;88.58
63325;SHT31;49451;52.390;13.028;2022-11-28T20:01:24;4.72;88.10
63325;SHT31;49451;52.390;13.028;2022-11-28T20:03:50;4.65;87.90
63325;SHT31;49451;52.390;13.028;2022-11-28T20:06:19;4.71;88.37
63325;SHT31;49451;52.390;13.028;2022-11-28T20:08:45;4.46;88.99
63325;SHT31;49451;52.390;13.028;2022-11-28T20:11:25;4.48;89.62
63325;SHT31;49451;52.390;13.028;2022-11-28T20:14:02;4.46;89.53
63325;SHT31;49451;52.390;13.028;2022-11-28T20:16:29;4.64;88.63
63325;SHT31;49451;52.390;13.028;2022-11-28T20:18:55;4.32;89.94
63325;SHT31;49451;52.390;13.028;2022-11-28T20:21:26;4.29;89.70
63325;SHT31;49451;52.390;13.028;2022-11-28T20:23:55;4.48;89.56
63325;SHT31;49451;52.390;13.028;2022-11-28T20:26:28;4.56;89.16
63325;SHT31;49451;52.390;13.028;2022-11-28T20:28:55;4.54;89.02
63325;SHT31;49451;52.390;13.028;2022-11-28T20:31:23;4.47;88.93
63325;SHT31;49451;52.390;13.028;2022-11-28T20:33:52;4.37;89.63
63325;SHT31;49451;52.390;13.028;2022-11-28T20:36:19;4.41;89.20
63325;SHT31;49451;52.390;13.028;2022-11-28T20:38:45;4.32;89.81
63325;SHT31;49451;52.390;13.028;2022-11-28T20:41:12;4.24;90.46
63325;SHT31;49451;52.390;13.028;2022-11-28T20:43:38;4.44;89.46
63325;SHT31;49451;52.390;13.028;2022-11-28T20:46:16;4.58;88.88
63325;SHT31;49451;52.390;13.028;2022-11-28T20:48:41;4.38;89.49
63325;SHT31;49451;52.390;13.028;2022-11-28T20:51:12;4.41;89.33
63325;SHT31;49451;52.390;13.028;2022-11-28T20:53:46;4.32;90.18
63325;SHT31;49451;52.390;13.028;2022-11-28T20:56:33;4.54;89.26
63325;SHT31;49451;52.390;13.028;2022-11-28T20:59:05;4.43;89.25
63325;SHT31;49451;52.390;13.028;2022-11-28T21:01:33;4.37;89.56
63325;SHT31;49451;52.390;13.028;2022-11-28T21:04:00;4.48;89.43
63325;SHT31;49451;52.390;13.028;2022-11-28T21:06:26;4.37;89.40
63325;SHT31;49451;52.390;13.028;2022-11-28T21:08:51;4.38;90.08
63325;SHT31;49451;52.390;13.028;2022-11-28T21:11:21;4.32;89.91
63325;SHT31;49451;52.390;13.028;2022-11-28T21:13:50;4.40;89.45
63325;SHT31;49451;52.390;13.028;2022-11-28T21:16:25;4.56;88.86
63325;SHT31;49451;52.390;13.028;2022-11-28T21:19:02;4.44;89.26
63325;SHT31;49451;52.390;13.028;2022-11-28T21:21:32;4.50;89.33
63325;SHT31;49451;52.390;13.028;2022-11-28T21:24:22;4.51;89.19
63325;SHT31;49451;52.390;13.028;2022-11-28T21:26:58;4.54;89.07
63325;SHT31;49451;52.390;13.028;2022-11-28T21:29:31;4.37;89.31
63325;SHT31;49451;52.390;13.028;2022-11-28T21:31:59;4.48;89.07
63325;SHT31;49451;52.390;13.028;2022-11-28T21:34:25;4.47;89.40
63325;SHT31;49451;52.390;13.028;2022-11-28T21:36:50;4.46;89.47
63325;SHT31;49451;52.390;13.028;2022-11-28T21:39:19;4.44;89.25
63325;SHT31;49451;52.390;13.028;2022-11-28T21:41:44;4.46;89.07
63325;SHT31;49451;52.390;13.028;2022-11-28T21:44:10;4.44;89.53
63325;SHT31;49451;52.390;13.028;2022-11-28T21:46:35;4.44;89.28
63325;SHT31;49451;52.390;13.028;2022-11-28T21:49:01;4.44;89.33
63325;SHT31;49451;52.390;13.028;2022-11-28T21:51:56;4.56;88.75
63325;SHT31;49451;52.390;13.028;2022-11-28T21:54:50;4.29;89.87
63325;SHT31;49451;52.390;13.028;2022-11-28T21:57:16;4.46;89.72
63325;SHT31;49451;52.390;13.028;2022-11-28T21:59:42;4.57;88.83
